Time;durP1;ratioP1;P1;durP2;ratioP2;P2;SDS_P1;SDS_P2;PMS_P1;PMS_P2;Temp;Humidity;BMP_temperature;BMP_pressure;BME280_temperature;BME280_humidity;BME280_pressure;Samples;Min_cycle;Max_cycle;Signal;HPM_P1;HPM_P2
2022/12/29 00:01:21;;;;;;;;;;;5.00;81.10;;;;;;5045271;28;87035;-41
2022/12/29 00:03:47;;;;;;;;;;;5.00;81.10;;;;;;5045413;28;87267;-40
2022/12/29 00:06:12;;;;;;;;;;;4.90;81.10;;;;;;5045053;28;88060;-40
2022/12/29 00:08:41;;;;;;;;;;;4.90;81.10;;;;;;5044952;27;87100;-40
2022/12/29 00:11:08;;;;;;;;;;;4.90;81.20;;;;;;5044434;28;88572;-41
2022/12/29 00:16:17;;;;;;;;;;;5.00;81.10;;;;;;5048162;28;86888;-40
2022/12/29 00:18:43;;;;;;;;;;;4.90;80.90;;;;;;5044791;28;87997;-40
2022/12/29 00:35:07;;;;;;;;;;;5.00;81.00;;;;;;5020255;28;87392;-41
2022/12/29 00:35:11;;;;;;;;;;;4.90;81.10;;;;;;5044602;28;87184;-40
2022/12/29 00:45:51;;;;;;;;;;;5.00;81.00;;;;;;5044775;28;87309;-40
2022/12/29 00:49:29;;;;;;;;;;;4.90;81.00;;;;;;5044181;28;88138;-40
2022/12/29 00:51:02;;;;;;;;;;;4.90;81.00;;;;;;5043774;27;87032;-40
2022/12/29 00:53:27;;;;;;;;;;;4.90;81.10;;;;;;5044432;28;87729;-41
2022/12/29 00:55:53;;;;;;;;;;;4.90;81.00;;;;;;5044057;28;88144;-40
2022/12/29 00:58:18;;;;;;;;;;;4.90;81.10;;;;;;5044876;28;86328;-40
2022/12/29 01:00:43;;;;;;;;;;;4.90;81.00;;;;;;5046993;28;87015;-40
2022/12/29 01:03:09;;;;;;;;;;;4.90;81.10;;;;;;5044306;28;87128;-40
2022/12/29 01:05:37;;;;;;;;;;;4.90;81.00;;;;;;5043704;28;87827;-40
2022/12/29 01:08:03;;;;;;;;;;;4.90;81.00;;;;;;5043748;28;87638;-40
2022/12/29 01:10:29;;;;;;;;;;;4.90;81.00;;;;;;5044162;28;86993;-40
2022/12/29 01:12:54;;;;;;;;;;;4.90;81.00;;;;;;5044097;28;87375;-40
2022/12/29 01:15:20;;;;;;;;;;;4.90;81.10;;;;;;5043799;28;88175;-40
2022/12/29 01:17:45;;;;;;;;;;;4.90;81.10;;;;;;5044254;28;87132;-40
2022/12/29 01:20:12;;;;;;;;;;;4.90;81.10;;;;;;5040555;27;92032;-40
2022/12/29 01:22:38;;;;;;;;;;;4.90;81.10;;;;;;5043413;28;92827;-40
2022/12/29 01:25:04;;;;;;;;;;;4.90;81.10;;;;;;5040712;28;92097;-40
2022/12/29 01:27:29;;;;;;;;;;;4.90;81.10;;;;;;5039957;28;93503;-40
2022/12/29 01:29:55;;;;;;;;;;;4.90;81.00;;;;;;5039906;28;93116;-40
2022/12/29 01:32:20;;;;;;;;;;;4.90;81.00;;;;;;5040514;28;93353;-40
2022/12/29 01:34:45;;;;;;;;;;;4.90;81.10;;;;;;5040093;28;92937;-40
2022/12/29 01:37:11;;;;;;;;;;;4.90;81.00;;;;;;5040327;28;91957;-41
2022/12/29 01:39:37;;;;;;;;;;;4.90;81.10;;;;;;5040233;28;92409;-40
2022/12/29 01:42:02;;;;;;;;;;;4.90;81.10;;;;;;5039522;28;92980;-40
2022/12/29 01:44:46;;;;;;;;;;;4.90;81.00;;;;;;5043335;28;92467;-40
2022/12/29 01:47:12;;;;;;;;;;;4.90;81.00;;;;;;5040436;28;92238;-41
2022/12/29 01:49:38;;;;;;;;;;;4.90;81.00;;;;;;5040365;28;92167;-41
2022/12/29 01:52:05;;;;;;;;;;;4.90;81.00;;;;;;5040263;28;92452;-40
2022/12/29 01:54:33;;;;;;;;;;;4.90;80.90;;;;;;5039037;28;93516;-41
2022/12/29 01:57:00;;;;;;;;;;;4.90;80.90;;;;;;5040068;28;92100;-40
2022/12/29 01:59:28;;;;;;;;;;;4.90;80.90;;;;;;5040018;28;92458;-40
2022/12/29 02:01:54;;;;;;;;;;;4.90;80.90;;;;;;5039208;28;92985;-40
2022/12/29 02:04:22;;;;;;;;;;;4.90;80.90;;;;;;5040034;28;92164;-40
2022/12/29 02:06:58;;;;;;;;;;;4.90;80.90;;;;;;5042564;28;92457;-41
2022/12/29 02:09:23;;;;;;;;;;;4.90;80.90;;;;;;5040026;28;92110;-40
2022/12/29 02:11:49;;;;;;;;;;;4.90;81.10;;;;;;5040435;28;92260;-41
2022/12/29 02:14:15;;;;;;;;;;;4.90;81.10;;;;;;5039430;28;92994;-40
2022/12/29 02:16:59;;;;;;;;;;;4.80;81.10;;;;;;5039672;28;92123;-41
2022/12/29 02:19:42;;;;;;;;;;;4.80;81.10;;;;;;5039376;28;93058;-40
2022/12/29 02:22:25;;;;;;;;;;;4.90;81.10;;;;;;5039214;28;93215;-40
2022/12/29 02:25:03;;;;;;;;;;;4.90;81.00;;;;;;5039791;28;92101;-41
2022/12/29 02:27:37;;;;;;;;;;;4.90;81.00;;;;;;5039770;28;92623;-40
2022/12/29 02:30:03;;;;;;;;;;;4.90;81.00;;;;;;5042196;28;93119;-40
2022/12/29 02:32:40;;;;;;;;;;;4.90;81.10;;;;;;5039241;28;92465;-40
2022/12/29 02:35:25;;;;;;;;;;;4.80;81.00;;;;;;5039131;28;93041;-40
2022/12/29 02:37:53;;;;;;;;;;;4.80;81.00;;;;;;5039676;28;91561;-40
2022/12/29 02:40:24;;;;;;;;;;;4.80;81.00;;;;;;5039596;28;92169;-41
2022/12/29 02:42:53;;;;;;;;;;;4.90;81.00;;;;;;5038764;28;93029;-40
2022/12/29 02:45:21;;;;;;;;;;;4.90;80.90;;;;;;5038910;28;93093;-40
2022/12/29 02:47:53;;;;;;;;;;;4.80;80.90;;;;;;5039550;28;93423;-40
2022/12/29 02:50:31;;;;;;;;;;;4.80;80.90;;;;;;5038353;27;92316;-40
2022/12/29 02:52:59;;;;;;;;;;;4.90;80.90;;;;;;5039737;28;92122;-40
2022/12/29 02:55:24;;;;;;;;;;;4.90;80.80;;;;;;5038827;28;93262;-40
2022/12/29 02:58:06;;;;;;;;;;;4.90;80.80;;;;;;5039230;28;92056;-40
2022/12/29 03:00:32;;;;;;;;;;;4.90;80.90;;;;;;5039331;28;92483;-40
2022/12/29 03:03:11;;;;;;;;;;;4.90;80.80;;;;;;5039179;28;92250;-40
2022/12/29 03:05:40;;;;;;;;;;;4.90;80.80;;;;;;5039284;28;92038;-40
2022/12/29 03:08:11;;;;;;;;;;;4.80;80.80;;;;;;5039285;28;92364;-40
2022/12/29 03:10:44;;;;;;;;;;;4.90;80.90;;;;;;5037874;28;94048;-40
2022/12/29 03:16:03;;;;;;;;;;;4.80;80.90;;;;;;5038642;28;92186;-40
2022/12/29 03:18:34;;;;;;;;;;;4.90;80.90;;;;;;5038572;28;92128;-40
2022/12/29 03:21:20;;;;;;;;;;;4.80;80.90;;;;;;5039100;28;92512;-40
2022/12/29 03:23:48;;;;;;;;;;;4.80;80.90;;;;;;5037857;28;93013;-40
2022/12/29 03:26:15;;;;;;;;;;;4.80;81.10;;;;;;5038736;28;92242;-40
2022/12/29 03:28:44;;;;;;;;;;;4.80;81.10;;;;;;5039508;28;91574;-40
2022/12/29 03:31:12;;;;;;;;;;;4.80;81.10;;;;;;5038101;28;93068;-41
2022/12/29 03:33:38;;;;;;;;;;;4.80;80.90;;;;;;5038798;28;92131;-40
2022/12/29 03:36:04;;;;;;;;;;;4.80;81.00;;;;;;5040775;28;93013;-40
2022/12/29 03:38:35;;;;;;;;;;;4.80;81.10;;;;;;5038317;28;92193;-41
2022/12/29 03:41:03;;;;;;;;;;;4.80;81.00;;;;;;5038590;28;91894;-40
2022/12/29 03:43:28;;;;;;;;;;;4.80;81.00;;;;;;5038380;27;93152;-40
2022/12/29 03:45:54;;;;;;;;;;;4.80;81.00;;;;;;5041287;28;92169;-40
2022/12/29 03:48:19;;;;;;;;;;;4.80;80.90;;;;;;5042320;28;92611;-40
2022/12/29 03:50:45;;;;;;;;;;;4.80;81.00;;;;;;5041541;28;93229;-41
2022/12/29 03:53:10;;;;;;;;;;;4.80;81.10;;;;;;5042608;28;91510;-40
2022/12/29 03:55:36;;;;;;;;;;;4.80;81.00;;;;;;5041789;28;93179;-41
2022/12/29 03:58:01;;;;;;;;;;;4.80;81.00;;;;;;5044688;28;93405;-40
2022/12/29 04:00:28;;;;;;;;;;;4.80;81.00;;;;;;5041564;28;92967;-40
2022/12/29 04:02:53;;;;;;;;;;;4.80;81.10;;;;;;5041515;28;92315;-40
2022/12/29 04:05:19;;;;;;;;;;;4.80;81.10;;;;;;5041923;28;92163;-40
2022/12/29 04:07:44;;;;;;;;;;;4.80;81.10;;;;;;5041709;28;92399;-40
2022/12/29 04:10:10;;;;;;;;;;;4.80;81.10;;;;;;5041178;28;93291;-40
2022/12/29 04:12:35;;;;;;;;;;;4.80;81.00;;;;;;5041797;28;92229;-40
2022/12/29 04:15:01;;;;;;;;;;;4.80;81.00;;;;;;5041780;28;92310;-40
2022/12/29 04:17:26;;;;;;;;;;;4.70;81.10;;;;;;5041707;28;92414;-40
2022/12/29 04:20:59;;;;;;;;;;;4.80;81.10;;;;;;5044828;28;92214;-40
2022/12/29 04:22:37;;;;;;;;;;;4.80;81.00;;;;;;5040536;28;93932;-40
2022/12/29 04:25:03;;;;;;;;;;;4.80;80.90;;;;;;5040857;27;93059;-40
2022/12/29 04:27:28;;;;;;;;;;;4.70;80.80;;;;;;5041471;28;93614;-40
2022/12/29 04:29:54;;;;;;;;;;;4.80;80.80;;;;;;5041177;28;93398;-41
2022/12/29 04:32:19;;;;;;;;;;;4.80;80.80;;;;;;5041597;28;91996;-40
2022/12/29 04:34:44;;;;;;;;;;;4.70;80.70;;;;;;5041216;28;92426;-41
2022/12/29 04:37:10;;;;;;;;;;;4.80;80.90;;;;;;5040949;28;93263;-41
2022/12/29 04:39:35;;;;;;;;;;;4.80;80.90;;;;;;5022767;28;92139;-40
2022/12/29 04:42:01;;;;;;;;;;;4.80;80.80;;;;;;5043694;28;92426;-40
2022/12/29 04:44:26;;;;;;;;;;;4.80;80.80;;;;;;5041352;28;91939;-40
2022/12/29 04:46:52;;;;;;;;;;;4.80;80.80;;;;;;5041505;28;92559;-40
2022/12/29 04:49:17;;;;;;;;;;;4.80;80.70;;;;;;5039883;28;94031;-41
2022/12/29 04:51:43;;;;;;;;;;;4.80;80.80;;;;;;5040985;28;92178;-41
2022/12/29 04:54:08;;;;;;;;;;;4.80;80.80;;;;;;5041150;28;92394;-40
2022/12/29 04:56:34;;;;;;;;;;;4.70;80.90;;;;;;5039825;28;94494;-40
2022/12/29 04:58:59;;;;;;;;;;;4.70;80.80;;;;;;5040994;28;92193;-41
2022/12/29 05:01:25;;;;;;;;;;;4.70;80.90;;;;;;5043789;28;92260;-40
2022/12/29 05:03:51;;;;;;;;;;;4.70;80.90;;;;;;5040904;28;92156;-41
2022/12/29 05:06:17;;;;;;;;;;;4.70;80.80;;;;;;5041082;28;93829;-40
2022/12/29 05:08:42;;;;;;;;;;;4.70;80.80;;;;;;5040443;28;93167;-40
2022/12/29 05:11:07;;;;;;;;;;;4.70;80.70;;;;;;5040878;28;92790;-40
2022/12/29 05:13:33;;;;;;;;;;;4.70;80.80;;;;;;5040441;28;92989;-41
2022/12/29 05:15:58;;;;;;;;;;;4.70;80.70;;;;;;5040213;28;93058;-40
2022/12/29 05:18:24;;;;;;;;;;;4.70;80.60;;;;;;5040889;28;93053;-40
2022/12/29 05:20:49;;;;;;;;;;;4.70;80.80;;;;;;5040524;28;92530;-40
2022/12/29 05:23:15;;;;;;;;;;;4.70;80.70;;;;;;5043458;28;92402;-40
2022/12/29 05:25:41;;;;;;;;;;;4.70;80.70;;;;;;5040694;28;92287;-40
2022/12/29 05:28:06;;;;;;;;;;;4.70;80.80;;;;;;5039987;28;93285;-40
2022/12/29 05:30:32;;;;;;;;;;;4.70;80.70;;;;;;5041133;28;91177;-40
2022/12/29 05:32:57;;;;;;;;;;;4.70;80.70;;;;;;5040682;28;91999;-40
2022/12/29 05:35:23;;;;;;;;;;;4.70;80.70;;;;;;5039917;28;93150;-40
2022/12/29 05:37:48;;;;;;;;;;;4.70;80.80;;;;;;5039837;28;93081;-40
2022/12/29 05:40:14;;;;;;;;;;;4.70;80.70;;;;;;5040195;28;93127;-40
2022/12/29 05:42:39;;;;;;;;;;;4.70;80.70;;;;;;5039096;28;94559;-40
2022/12/29 05:45:06;;;;;;;;;;;4.70;80.70;;;;;;5043504;28;92052;-40
2022/12/29 05:47:32;;;;;;;;;;;4.70;80.80;;;;;;5039678;28;93498;-40
2022/12/29 05:49:58;;;;;;;;;;;4.70;80.80;;;;;;5039945;28;92240;-41
2022/12/29 05:52:41;;;;;;;;;;;4.70;80.80;;;;;;5040292;28;92433;-40
2022/12/29 05:55:07;;;;;;;;;;;4.70;80.80;;;;;;5040165;28;92644;-40
2022/12/29 05:57:32;;;;;;;;;;;4.70;80.90;;;;;;5040106;28;92061;-40
2022/12/29 05:59:58;;;;;;;;;;;4.70;80.80;;;;;;5040102;28;92443;-40
2022/12/29 06:02:23;;;;;;;;;;;4.70;80.90;;;;;;5038904;28;94010;-40
2022/12/29 06:04:49;;;;;;;;;;;4.70;80.80;;;;;;5039875;28;92010;-40
2022/12/29 06:07:14;;;;;;;;;;;4.70;80.90;;;;;;5041699;27;92540;-40
2022/12/29 06:09:40;;;;;;;;;;;4.70;80.80;;;;;;5040107;28;92088;-40
2022/12/29 06:12:06;;;;;;;;;;;4.70;80.70;;;;;;5039796;28;93886;-40
2022/12/29 06:14:31;;;;;;;;;;;4.70;80.70;;;;;;5039160;28;94309;-40
2022/12/29 06:16:57;;;;;;;;;;;4.70;80.70;;;;;;5040061;28;92222;-40
2022/12/29 06:19:22;;;;;;;;;;;4.70;80.80;;;;;;5040076;28;92456;-40
2022/12/29 06:21:48;;;;;;;;;;;4.70;81.40;;;;;;5039001;28;94490;-40
2022/12/29 06:24:13;;;;;;;;;;;4.70;80.80;;;;;;5039635;28;92162;-40
2022/12/29 06:26:40;;;;;;;;;;;4.70;80.80;;;;;;5039100;28;92944;-40
2022/12/29 06:29:07;;;;;;;;;;;4.60;80.60;;;;;;5042310;28;93080;-40
2022/12/29 06:31:32;;;;;;;;;;;4.60;80.80;;;;;;5039257;28;94247;-40
2022/12/29 06:33:58;;;;;;;;;;;4.60;80.80;;;;;;5039046;28;93005;-40
2022/12/29 06:36:23;;;;;;;;;;;4.60;80.70;;;;;;5039725;28;92495;-40
2022/12/29 06:38:52;;;;;;;;;;;4.70;80.70;;;;;;5039413;28;92379;-40
2022/12/29 06:41:18;;;;;;;;;;;4.60;80.70;;;;;;5038416;28;94242;-40
2022/12/29 06:43:43;;;;;;;;;;;4.60;80.60;;;;;;5040179;28;91283;-40
2022/12/29 06:46:09;;;;;;;;;;;4.60;80.70;;;;;;5039578;28;91989;-41
2022/12/29 06:48:34;;;;;;;;;;;4.70;80.90;;;;;;5038805;28;93007;-40
2022/12/29 06:51:00;;;;;;;;;;;4.60;80.70;;;;;;5042117;28;93062;-40
2022/12/29 06:53:26;;;;;;;;;;;4.60;80.60;;;;;;5038924;28;93050;-40
2022/12/29 06:55:51;;;;;;;;;;;4.70;80.70;;;;;;5039128;28;92206;-40
2022/12/29 06:58:17;;;;;;;;;;;4.70;80.60;;;;;;5039344;28;92468;-40
2022/12/29 07:00:43;;;;;;;;;;;4.70;80.60;;;;;;5038624;28;93314;-40
2022/12/29 07:03:08;;;;;;;;;;;4.60;80.70;;;;;;5039125;28;92637;-40
2022/12/29 07:05:34;;;;;;;;;;;4.70;80.70;;;;;;5039124;28;92376;-40
2022/12/29 07:07:59;;;;;;;;;;;4.60;80.70;;;;;;5039339;28;92514;-40
2022/12/29 07:10:25;;;;;;;;;;;4.60;80.60;;;;;;5042270;28;92147;-40
2022/12/29 07:12:50;;;;;;;;;;;4.60;80.80;;;;;;5038727;28;93141;-40
2022/12/29 07:15:16;;;;;;;;;;;4.60;80.90;;;;;;5038601;28;93118;-40
2022/12/29 07:17:42;;;;;;;;;;;4.60;80.70;;;;;;5039089;28;92513;-40
2022/12/29 07:20:07;;;;;;;;;;;4.60;80.70;;;;;;5041372;27;93348;-40
2022/12/29 07:22:33;;;;;;;;;;;4.60;80.50;;;;;;5042877;28;92102;-41
2022/12/29 07:24:58;;;;;;;;;;;4.70;80.70;;;;;;5042788;28;92506;-40
2022/12/29 07:27:24;;;;;;;;;;;4.60;80.50;;;;;;5023498;28;95618;-40
2022/12/29 07:29:49;;;;;;;;;;;4.70;80.60;;;;;;5042452;28;92198;-40
2022/12/29 07:32:15;;;;;;;;;;;4.70;80.60;;;;;;5045432;28;92413;-40
2022/12/29 07:34:40;;;;;;;;;;;4.70;80.50;;;;;;5042540;28;93095;-40
2022/12/29 07:37:06;;;;;;;;;;;4.60;80.50;;;;;;5042102;28;93594;-40
2022/12/29 07:39:32;;;;;;;;;;;4.60;80.50;;;;;;5041013;28;93950;-40
2022/12/29 07:41:57;;;;;;;;;;;4.70;80.60;;;;;;5041720;28;95029;-40
2022/12/29 07:44:23;;;;;;;;;;;4.60;80.70;;;;;;5042431;28;92416;-41
2022/12/29 07:46:48;;;;;;;;;;;4.70;80.70;;;;;;5041720;28;93076;-40
2022/12/29 07:49:13;;;;;;;;;;;4.60;80.60;;;;;;5042019;27;92163;-40
2022/12/29 07:51:39;;;;;;;;;;;4.60;80.70;;;;;;5042076;28;92460;-40
2022/12/29 07:54:04;;;;;;;;;;;4.60;80.60;;;;;;5044883;28;93299;-40
2022/12/29 07:56:30;;;;;;;;;;;4.60;80.50;;;;;;5042556;28;92419;-40
2022/12/29 07:58:56;;;;;;;;;;;4.70;80.60;;;;;;5041497;28;93536;-40
2022/12/29 08:01:23;;;;;;;;;;;4.60;80.60;;;;;;5041898;28;92127;-40
2022/12/29 08:03:49;;;;;;;;;;;4.60;80.70;;;;;;5041409;28;92859;-40
2022/12/29 08:06:14;;;;;;;;;;;4.60;80.80;;;;;;5041394;28;93251;-41
2022/12/29 08:08:40;;;;;;;;;;;4.70;80.80;;;;;;5042001;28;91985;-40
2022/12/29 08:11:05;;;;;;;;;;;4.60;80.60;;;;;;5041950;28;92362;-40
2022/12/29 08:13:30;;;;;;;;;;;4.60;80.60;;;;;;5041230;28;93208;-40
2022/12/29 08:15:57;;;;;;;;;;;4.70;80.80;;;;;;5044965;28;92179;-40
2022/12/29 08:18:23;;;;;;;;;;;4.70;80.60;;;;;;5041301;28;93135;-41
2022/12/29 08:20:48;;;;;;;;;;;4.70;80.60;;;;;;5042021;28;91426;-40
2022/12/29 08:23:13;;;;;;;;;;;4.70;80.70;;;;;;5041849;28;92540;-40
2022/12/29 08:25:39;;;;;;;;;;;4.70;80.60;;;;;;5041106;28;93190;-41
2022/12/29 08:28:04;;;;;;;;;;;4.70;80.60;;;;;;5041089;28;93495;-40
2022/12/29 08:30:30;;;;;;;;;;;4.70;80.70;;;;;;5040230;27;95270;-40
2022/12/29 08:32:55;;;;;;;;;;;4.70;80.60;;;;;;5040975;27;93213;-40
2022/12/29 08:35:21;;;;;;;;;;;4.70;80.60;;;;;;5041478;28;92022;-40
2022/12/29 08:37:46;;;;;;;;;;;4.70;80.50;;;;;;5044022;28;92469;-40
2022/12/29 08:40:12;;;;;;;;;;;4.70;80.70;;;;;;5040948;28;92154;-40
2022/12/29 08:42:38;;;;;;;;;;;4.70;80.60;;;;;;5041395;28;92432;-40
2022/12/29 08:45:03;;;;;;;;;;;4.70;80.90;;;;;;5041352;28;92443;-40
2022/12/29 08:47:29;;;;;;;;;;;4.70;80.60;;;;;;5041068;28;92122;-40
2022/12/29 08:49:54;;;;;;;;;;;4.70;80.60;;;;;;5041171;28;92614;-40
2022/12/29 08:52:20;;;;;;;;;;;4.70;80.40;;;;;;5039937;28;93969;-40
2022/12/29 08:54:45;;;;;;;;;;;4.70;80.70;;;;;;5041109;27;92354;-40
2022/12/29 08:57:11;;;;;;;;;;;4.70;80.60;;;;;;5041082;28;92600;-40
2022/12/29 08:59:36;;;;;;;;;;;4.70;80.60;;;;;;5043653;28;93151;-40
2022/12/29 09:02:02;;;;;;;;;;;4.70;80.70;;;;;;5040969;28;92359;-40
2022/12/29 09:04:27;;;;;;;;;;;4.70;80.50;;;;;;5040353;27;93316;-40
2022/12/29 09:06:53;;;;;;;;;;;4.80;80.70;;;;;;5040700;28;92154;-40
2022/12/29 09:09:19;;;;;;;;;;;4.70;80.80;;;;;;5041453;28;91708;-40
2022/12/29 09:11:44;;;;;;;;;;;4.70;80.70;;;;;;5040283;27;93340;-40
2022/12/29 09:14:10;;;;;;;;;;;4.70;80.60;;;;;;5040801;28;92150;-40
2022/12/29 09:16:35;;;;;;;;;;;4.70;80.70;;;;;;5040312;28;93000;-40
2022/12/29 09:19:01;;;;;;;;;;;4.80;80.60;;;;;;5043245;28;93185;-41
2022/12/29 09:21:27;;;;;;;;;;;4.80;80.80;;;;;;5040760;28;92450;-40
2022/12/29 09:23:52;;;;;;;;;;;4.80;80.60;;;;;;5040172;28;93329;-40
2022/12/29 09:26:18;;;;;;;;;;;4.70;80.50;;;;;;5040700;28;92126;-40
2022/12/29 09:28:44;;;;;;;;;;;4.70;80.60;;;;;;5040767;28;92166;-41
2022/12/29 09:31:10;;;;;;;;;;;4.70;80.60;;;;;;5040200;28;93055;-40
2022/12/29 09:33:35;;;;;;;;;;;4.70;80.70;;;;;;5040965;28;91419;-40
2022/12/29 09:36:01;;;;;;;;;;;4.70;80.80;;;;;;5040347;28;92164;-40
2022/12/29 09:38:27;;;;;;;;;;;4.70;80.90;;;;;;5039792;28;93088;-40
2022/12/29 09:40:57;;;;;;;;;;;4.70;80.90;;;;;;5042364;28;93246;-40
2022/12/29 09:43:23;;;;;;;;;;;4.80;80.90;;;;;;5038834;27;93280;-40
2022/12/29 09:45:51;;;;;;;;;;;4.80;80.80;;;;;;5040369;28;92164;-41
2022/12/29 09:48:19;;;;;;;;;;;4.80;81.00;;;;;;5040221;28;92608;-40
2022/12/29 09:50:48;;;;;;;;;;;4.80;80.80;;;;;;5039760;28;92891;-40
2022/12/29 09:53:17;;;;;;;;;;;4.80;80.60;;;;;;5040303;28;92510;-40
2022/12/29 09:55:47;;;;;;;;;;;4.80;80.90;;;;;;5040160;28;92530;-40
2022/12/29 09:58:16;;;;;;;;;;;4.80;80.70;;;;;;5039876;28;91553;-40
2022/12/29 10:00:49;;;;;;;;;;;4.80;80.70;;;;;;5040055;28;92557;-40
2022/12/29 10:03:17;;;;;;;;;;;4.80;80.70;;;;;;5042497;28;92357;-40
2022/12/29 10:05:48;;;;;;;;;;;4.80;81.00;;;;;;5039456;28;93042;-41
2022/12/29 10:08:40;;;;;;;;;;;4.80;80.70;;;;;;5040080;28;93228;-41
2022/12/29 10:11:18;;;;;;;;;;;4.80;80.90;;;;;;5033997;27;93169;-40
2022/12/29 10:14:02;;;;;;;;;;;4.80;81.00;;;;;;5040208;28;92165;-40
2022/12/29 10:16:49;;;;;;;;;;;4.70;81.20;;;;;;5039937;28;92459;-41
2022/12/29 10:19:14;;;;;;;;;;;4.70;81.20;;;;;;5039448;28;93132;-40
2022/12/29 10:21:55;;;;;;;;;;;4.70;81.40;;;;;;5039786;28;92123;-40
2022/12/29 10:24:21;;;;;;;;;;;4.70;81.40;;;;;;5040319;28;92421;-40
2022/12/29 10:26:48;;;;;;;;;;;4.70;81.20;;;;;;5042289;28;93140;-40
2022/12/29 10:29:22;;;;;;;;;;;4.80;81.20;;;;;;5039856;28;92431;-40
2022/12/29 10:31:50;;;;;;;;;;;4.80;81.20;;;;;;5038156;28;94191;-40
2022/12/29 10:34:22;;;;;;;;;;;4.80;81.10;;;;;;5039569;28;92200;-40
2022/12/29 10:36:48;;;;;;;;;;;4.80;81.60;;;;;;5039612;28;92572;-40
2022/12/29 10:39:14;;;;;;;;;;;4.80;81.30;;;;;;5038854;28;92469;-40
2022/12/29 10:42:18;;;;;;;;;;;4.90;81.20;;;;;;5039169;28;92192;-40
2022/12/29 10:44:43;;;;;;;;;;;4.90;81.10;;;;;;4937671;28;92304;-40
2022/12/29 10:47:14;;;;;;;;;;;4.90;81.00;;;;;;4937599;28;93385;-40
2022/12/29 10:49:42;;;;;;;;;;;4.80;81.20;;;;;;4991390;28;91466;-40
2022/12/29 10:52:08;;;;;;;;;;;4.90;81.20;;;;;;5038584;28;94748;-40
2022/12/29 10:54:57;;;;;;;;;;;4.90;81.20;;;;;;5038793;28;92045;-40
2022/12/29 10:57:27;;;;;;;;;;;4.90;81.10;;;;;;5024450;28;93116;-41
2022/12/29 10:59:52;;;;;;;;;;;5.00;81.30;;;;;;5038339;28;94772;-40
2022/12/29 11:02:21;;;;;;;;;;;5.00;81.20;;;;;;5039296;28;92171;-41
2022/12/29 11:04:52;;;;;;;;;;;4.90;81.30;;;;;;5039106;28;92727;-41
2022/12/29 11:07:19;;;;;;;;;;;5.00;81.10;;;;;;5038893;28;93145;-40
2022/12/29 11:09:45;;;;;;;;;;;5.00;81.20;;;;;;5039072;28;92122;-40
2022/12/29 11:12:21;;;;;;;;;;;5.00;81.50;;;;;;5041765;28;92378;-40
2022/12/29 11:14:47;;;;;;;;;;;5.00;81.30;;;;;;5039511;28;91523;-40
2022/12/29 11:17:17;;;;;;;;;;;5.00;81.50;;;;;;5038905;28;91935;-40
2022/12/29 11:19:42;;;;;;;;;;;5.00;81.20;;;;;;5038412;28;92126;-40
2022/12/29 11:22:14;;;;;;;;;;;5.00;81.50;;;;;;5038273;28;93109;-41
2022/12/29 11:24:46;;;;;;;;;;;5.00;81.60;;;;;;5038845;28;93355;-40
2022/12/29 11:27:18;;;;;;;;;;;5.00;81.70;;;;;;5038353;28;93351;-40
2022/12/29 11:29:43;;;;;;;;;;;5.10;81.70;;;;;;5038945;28;92464;-40
2022/12/29 11:32:23;;;;;;;;;;;5.00;81.60;;;;;;5041291;28;92536;-41
2022/12/29 11:34:48;;;;;;;;;;;5.10;81.90;;;;;;5038957;28;92229;-40
2022/12/29 11:37:26;;;;;;;;;;;5.10;81.80;;;;;;5038734;28;92158;-40
2022/12/29 11:39:56;;;;;;;;;;;5.10;82.00;;;;;;5038600;28;92412;-40
2022/12/29 11:42:35;;;;;;;;;;;5.10;81.90;;;;;;5037946;28;92250;-40
2022/12/29 11:45:15;;;;;;;;;;;5.10;81.60;;;;;;5038522;28;92278;-40
2022/12/29 11:47:42;;;;;;;;;;;5.10;81.80;;;;;;5037129;28;94268;-40
2022/12/29 11:50:08;;;;;;;;;;;5.10;81.90;;;;;;5038528;27;92435;-40
2022/12/29 11:52:37;;;;;;;;;;;5.10;81.90;;;;;;5038648;28;92477;-40
2022/12/29 11:55:05;;;;;;;;;;;5.10;81.90;;;;;;5040913;28;94206;-41
2022/12/29 11:57:32;;;;;;;;;;;5.10;81.80;;;;;;5038182;28;94208;-40
2022/12/29 11:59:59;;;;;;;;;;;5.10;82.10;;;;;;5037797;28;93247;-41
2022/12/29 12:02:31;;;;;;;;;;;5.20;82.30;;;;;;5038418;28;92025;-40
2022/12/29 12:05:12;;;;;;;;;;;5.20;82.20;;;;;;5038887;28;93832;-40
2022/12/29 12:07:39;;;;;;;;;;;5.20;81.90;;;;;;5041525;28;93246;-41
2022/12/29 12:10:06;;;;;;;;;;;5.20;82.20;;;;;;5023487;28;92113;-40
2022/12/29 12:12:39;;;;;;;;;;;5.20;82.20;;;;;;5041017;28;93857;-40
2022/12/29 12:15:05;;;;;;;;;;;5.20;82.10;;;;;;5041065;28;92138;-40
2022/12/29 12:17:40;;;;;;;;;;;5.30;82.10;;;;;;5044914;28;92178;-40
2022/12/29 12:20:18;;;;;;;;;;;5.20;81.90;;;;;;5041209;28;93274;-40
2022/12/29 12:22:53;;;;;;;;;;;5.20;82.20;;;;;;5041718;28;92145;-40
2022/12/29 12:25:20;;;;;;;;;;;5.20;82.30;;;;;;5041481;28;92498;-40
2022/12/29 12:27:51;;;;;;;;;;;5.30;82.30;;;;;;5040848;28;93492;-41
2022/12/29 12:30:18;;;;;;;;;;;5.30;82.40;;;;;;5041868;28;91423;-40
2022/12/29 12:32:44;;;;;;;;;;;5.20;82.50;;;;;;5041532;28;91953;-40
2022/12/29 12:35:21;;;;;;;;;;;5.30;82.60;;;;;;5040986;28;92970;-41
2022/12/29 12:37:53;;;;;;;;;;;5.30;82.30;;;;;;5040839;28;93035;-41
2022/12/29 12:40:39;;;;;;;;;;;5.30;82.60;;;;;;5043634;28;93233;-40
2022/12/29 12:43:16;;;;;;;;;;;5.30;82.60;;;;;;5040194;28;92220;-42
2022/12/29 12:46:00;;;;;;;;;;;5.30;84.30;;;;;;5041478;28;92453;-43
2022/12/29 12:48:44;;;;;;;;;;;5.40;88.60;;;;;;5040769;28;92926;-43
2022/12/29 12:51:24;;;;;;;;;;;5.60;89.20;;;;;;5041085;27;92125;-42
2022/12/29 12:53:52;;;;;;;;;;;5.70;89.20;;;;;;5041227;28;92510;-39
2022/12/29 12:56:26;;;;;;;;;;;5.70;88.80;;;;;;5041145;28;91431;-43
2022/12/29 12:59:03;;;;;;;;;;;5.90;89.30;;;;;;5041029;28;92221;-42
2022/12/29 13:01:29;;;;;;;;;;;;;;;;;;5041106;28;92369;-40
2022/12/29 13:03:55;;;;;;;;;;;;;;;;;;5043202;28;94005;-41
2022/12/29 13:06:21;;;;;;;;;;;;;;;;;;5040879;28;94209;-40
2022/12/29 13:08:47;;;;;;;;;;;;;;;;;;5040655;28;92275;-42
2022/12/29 13:11:13;;;;;;;;;;;;;;;;;;5040914;28;92295;-41
2022/12/29 13:13:39;;;;;;;;;;;;;;;;;;5041191;28;92156;-42
2022/12/29 13:16:05;;;;;;;;;;;;;;;;;;5040307;28;93080;-41
2022/12/29 13:18:30;;;;;;;;;;;;;;;;;;5026794;28;92236;-44
2022/12/29 13:20:56;;;;;;;;;;;;;;;;;;5021383;28;91967;-41
2022/12/29 13:23:24;;;;;;;;;;;;;;;;;;5020271;28;92815;-41
2022/12/29 13:25:50;;;;;;;;;;;;;;;;;;5023470;28;92107;-44
2022/12/29 13:28:16;;;;;;;;;;;;;;;;;;5019602;28;94008;-46
2022/12/29 13:30:42;;;;;;;;;;;;;;;;;;5020667;28;92254;-41
2022/12/29 13:33:07;;;;;;;;;;;;;;;;;;5020732;28;92012;-41
2022/12/29 13:35:33;;;;;;;;;;;;;;;;;;5020271;28;93346;-41
2022/12/29 13:37:59;;;;;;;;;;;;;;;;;;5020592;28;92188;-41
2022/12/29 13:40:25;;;;;;;;;;;;;;;;;;5020207;28;92053;-45
2022/12/29 13:42:51;;;;;;;;;;;;;;;;;;5019692;28;93097;-43
2022/12/29 13:45:17;;;;;;;;;;;;;;;;;;5023889;28;91451;-45
2022/12/29 13:47:43;;;;;;;;;;;;;;;;;;5019364;28;94382;-42
2022/12/29 13:50:09;;;;;;;;;;;;;;;;;;5020362;28;92254;-43
2022/12/29 13:52:35;;;;;;;;;;;;;;;;;;5019979;28;92925;-38
2022/12/29 13:55:01;;;;;;;;;;;;;;;;;;5019057;28;94386;-42
2022/12/29 13:57:27;;;;;;;;;;;;;;;;;;5020004;28;92088;-40
2022/12/29 13:59:53;;;;;;;;;;;;;;;;;;5020077;28;92141;-40
2022/12/29 14:02:19;;;;;;;;;;;;;;;;;;5019494;28;93138;-40
2022/12/29 14:04:45;;;;;;;;;;;;;;;;;;5019996;28;92832;-40
2022/12/29 14:07:11;;;;;;;;;;;;;;;;;;5022700;28;92143;-39
2022/12/29 14:09:37;;;;;;;;;;;;;;;;;;5020454;28;91552;-41
2022/12/29 14:12:03;;;;;;;;;;;;;;;;;;5019928;28;92005;-39
2022/12/29 14:14:28;;;;;;;;;;;;;;;;;;5019512;28;93175;-39
2022/12/29 14:16:54;;;;;;;;;;;;;;;;;;5019186;28;93167;-42
2022/12/29 14:19:20;;;;;;;;;;;;;;;;;;5019713;28;92859;-42
2022/12/29 14:21:46;;;;;;;;;;;;;;;;;;5019458;28;93275;-40
2022/12/29 14:24:12;;;;;;;;;;;;;;;;;;5019784;28;92130;-40
2022/12/29 14:26:38;;;;;;;;;;;;;;;;;;5019894;28;92042;-39
2022/12/29 14:29:04;;;;;;;;;;;;;;;;;;5021624;28;92964;-40
2022/12/29 14:31:30;;;;;;;;;;;;;;;;;;5019937;28;92114;-40
2022/12/29 14:33:56;;;;;;;;;;;;;;;;;;5019863;28;92266;-40
2022/12/29 14:36:21;;;;;;;;;;;;;;;;;;5019726;28;92296;-39
2022/12/29 14:38:47;;;;;;;;;;;;;;;;;;5019562;28;93372;-38
2022/12/29 14:41:14;;;;;;;;;;;;;;;;;;5017474;28;93244;-38
2022/12/29 14:43:39;;;;;;;;;;;;;;;;;;5019314;28;92096;-38
2022/12/29 14:46:05;;;;;;;;;;;;;;;;;;5019455;28;91932;-46
2022/12/29 14:48:31;;;;;;;;;;;;;;;;;;5019014;28;93199;-37
2022/12/29 14:50:57;;;;;;;;;;;;;;;;;;5022220;28;91947;-36
2022/12/29 14:53:23;;;;;;;;;;;;;;;;;;5018906;28;92970;-42
2022/12/29 14:55:52;;;;;;;;;;;;;;;;;;5019201;28;92232;-40
2022/12/29 14:58:18;;;;;;;;;;;;;;;;;;5019669;28;93283;-40
2022/12/29 15:00:44;;;;;;;;;;;;;;;;;;5019090;28;93242;-43
2022/12/29 15:03:10;;;;;;;;;;;;;;;;;;5018442;28;92056;-41
2022/12/29 15:05:35;;;;;;;;;;;;;;;;;;5018764;28;92987;-40
2022/12/29 15:08:01;;;;;;;;;;;;;;;;;;5018953;28;92982;-38
2022/12/29 15:10:27;;;;;;;;;;;;;;;;;;5019132;28;92318;-40
2022/12/29 15:12:53;;;;;;;;;;;;;;;;;;5021818;28;91959;-38
2022/12/29 15:15:19;;;;;;;;;;;;;;;;;;5019184;28;92184;-38
2022/12/29 15:17:45;;;;;;;;;;;;;;;;;;5019391;28;92072;-40